Manitou, Minnesota
Current Conditions -  °F | °C
As of 3:53 AM on Tuesday 21 Oct 2014 (Local Time) from KBDE Reporting Station
Clear Clear  
Wind Chill: 30°   Ceiling: Unl
Heat Index: 35°   Visibility: 10mi
Dew Point: 32°   Wind: 6mph
Humidity: 89%   Direction: 130°SE
Pressure: 30.13"   Gusts: NA
Location:  48.6069°N, 94.172°W
Report Text: KBDE 210853Z AUTO 13005KT 10SM CLR 02/00 A3013 RMK AO2 SLP214 T00170000 50003 TSNO
Loading
Personal Weather Stations






























Interactive Weather Map
Tropical Storm Tracking
New forecast layout! Learn more

10-Day Weather Forecast

Advertisements
Track Severe Weather on mobile